KSKF

Kelly Field Airport

San Antonio, Texas, USA
METAR KSKF 210456Z AUTO 15006KT 10SM CLR 29/22 A3001 RMK AO2 SLP154 T02860221 $
Observed Flight Rules
Aug-21 @ 04:56 UTC (9 hours ago) Visual Flight Rules
Wind Visibility Clouds
150° at 6 knots 10 miles
  • Clear skies
Temperatures Readings
Current 29°C / 84°F
Dewpoint 22°C / 72°F
Humidity 66%
Altimeter 30.01" Hg
Pressure 1015.4 hPa
Elevation 210
METAR KSKF 210456Z AUTO 15006KT 10SM CLR 29/22 A3001 RMK AO2 SLP154 T02860221 $
Observed Flight Rules
Aug-21 @ 04:56 UTC
(9 hours ago)
VFR
Wind Visibility
150° at 6 knots 10 miles
Clouds
  • Clear skies
Temperature Dewpoint
29°C / 84°F 22°C / 72°F
Humidity Altimeter Pressure
66% 30.01" Hg 1015.4 hPa